Wikieup, AZ

9:55 AM MST on August 27, 2014 (GMT -0700)
S CARROW RD | Change Station
CLOSE
Current Station
Personal Weather Station
Location: Yucca, AZ
Elevation: 2736 ft
Nearby Weather Stations

Elev 2736 ft 34.88 °N, 114.03 °W | Updated 3 minutes ago

Partly Cloudy
Partly Cloudy
90.1 °F
Feels Like 90 °F
N
5.3
Wind Variable Wind from SE

Today
High -- | Low -- °F
--% Chance of Precip.
Yesterday
High -- | Low -- °F
Precip. -- in
6:04 AM 7:07 PM
Waxing Crescent, 4% visible
Pressure 29.97 in
Visibility 10.0 miles
Clouds Clear
Heat Index 90 °F
Dew Point 60 °F
Humidity 37%
Rainfall 0.00 in
Snow Depth Not available.
UV 6 out of 12
Pollen 6.10 out of 12
Air Quality Not available.
Flu Activity Not available.
METAR KIGM 271651Z AUTO VRB03KT 10SM CLR 27/13 A3017 RMK AO2 SLP149 T02720133

More Conditions Fewer Conditions

Pressure 29.97 in
Visibility 10.0 miles
Clouds Clear
Heat Index 90 °F
Dew Point 60 °F
Humidity 37%
Rainfall 0.00 in
Snow Depth Not available.
UV 6 out of 12
Pollen 6.10 out of 12
Air Quality Not available.
Flu Activity Not available.
METAR KIGM 271651Z AUTO VRB03KT 10SM CLR 27/13 A3017 RMK AO2 SLP149 T02720133

More Conditions Fewer Conditions

10-Day Weather Forecast

Almanac

Astronomy

Aug. 27, 2014 Rise Set
Actual Time 6:04 AM MST 7:07 PM MST
Civil Twilight 5:38 AM MST 7:33 PM MST
Nautical Twilight 5:07 AM MST 8:04 PM MST
Astronomical Twilight 4:35 AM MST 8:36 PM MST
Moon 7:57 AM MST 8:09 PM MST
Length of Visible Light 13h 55m
Length of Day
13h 03m
Tomorrow will be 2m 3s shorter.
Waxing Crescent, 4% of the Moon is Illuminated
Today
Waxing Crescent
Sep 2
First Quarter
Sep 8
Full
Sep 15
Last Quarter
Sep 24
New

Today's Extremes

State Highs State Lows

Community

WunderPhotos

Upload Photos

1,747,727 photos uploaded!

Nearby

Snow Depth

Station Depth Elevation
White Horse Lake 0 in 7180 ft
Snowslide Canyon 2 in 9730 ft
Mormon Mountain 0 in 7500 ft
Happy Jack 0 in 7630 ft
Promontory 0 in 7930 ft

Earthquake Activity

City Distance Mag. Time & Date
No recent earthquake activity has been reported nearby.
Minimum magnitude displayed is 2.5.

Coastal Water Temperatures

Place Temperature
No Stations Reporting

Nearby Weather Stations